Time;durP1;ratioP1;P1;durP2;ratioP2;P2;SDS_P1;SDS_P2;PMS_P1;PMS_P2;Temp;Humidity;BMP_temperature;BMP_pressure;BME280_temperature;BME280_humidity;BME280_pressure;Samples;Min_cycle;Max_cycle;Signal;HPM_P1;HPM_P2
2022/06/13 00:00:22;;;;;;;;;12.33;12.33;26.30;47.50;;;;;;5094429;28;8836;-80
2022/06/13 00:02:49;;;;;;;;;16.67;16.67;26.30;47.30;;;;;;5094198;28;8780;-79
2022/06/13 00:05:15;;;;;;;;;17.00;17.00;25.90;48.10;;;;;;5094290;28;8803;-78
2022/06/13 00:07:41;;;;;;;;;17.00;17.00;26.10;48.00;;;;;;5094153;28;8732;-80
2022/06/13 00:10:08;;;;;;;;;16.00;16.00;26.00;47.60;;;;;;5094330;28;8768;-79
2022/06/13 00:12:35;;;;;;;;;12.67;12.67;26.20;47.70;;;;;;5094102;28;8816;-79
2022/06/13 00:15:02;;;;;;;;;15.33;15.33;26.20;47.30;;;;;;5094044;28;8833;-79
2022/06/13 00:17:27;;;;;;;;;16.00;16.00;25.90;48.20;;;;;;5093944;28;12331;-79
2022/06/13 00:19:53;;;;;;;;;13.00;13.00;26.00;48.20;;;;;;5094029;28;8886;-78
2022/06/13 00:22:19;;;;;;;;;16.00;16.00;26.20;47.80;;;;;;5093888;28;8834;-80
2022/06/13 00:24:45;;;;;;;;;15.67;15.67;26.30;47.00;;;;;;5093906;28;8780;-79
2022/06/13 00:27:12;;;;;;;;;14.00;14.00;26.20;46.90;;;;;;5094951;28;8830;-79
2022/06/13 00:29:39;;;;;;;;;16.67;16.67;26.10;47.30;;;;;;5097688;28;8760;-81
2022/06/13 00:32:05;;;;;;;;;14.33;14.33;26.30;47.00;;;;;;5097951;28;8775;-78
2022/06/13 00:34:31;;;;;;;;;14.33;14.33;26.50;46.30;;;;;;5097841;28;8768;-78
2022/06/13 00:36:57;;;;;;;;;15.67;15.67;26.50;46.20;;;;;;5097520;28;11531;-79
2022/06/13 00:39:23;;;;;;;;;12.00;12.00;26.60;46.10;;;;;;5097530;28;8886;-79
2022/06/13 00:41:49;;;;;;;;;16.67;16.67;26.50;45.40;;;;;;5097426;28;8753;-81
2022/06/13 00:44:18;;;;;;;;;16.33;16.33;26.60;46.00;;;;;;5097426;28;8891;-80
2022/06/13 00:46:44;;;;;;;;;15.67;15.67;26.30;46.40;;;;;;5097326;28;11506;-78
2022/06/13 00:49:14;;;;;;;;;14.33;14.33;26.30;46.10;;;;;;5097276;28;8779;-78
2022/06/13 00:51:48;;;;;;;;;14.00;14.00;26.40;46.10;;;;;;5097314;28;8787;-80
2022/06/13 00:54:18;;;;;;;;;14.00;14.00;26.30;45.90;;;;;;5079250;28;11522;-78
2022/06/13 00:56:45;;;;;;;;;14.33;14.33;26.30;45.70;;;;;;5097203;28;8783;-80
2022/06/13 00:59:18;;;;;;;;;13.00;13.00;26.20;46.40;;;;;;5097374;28;11515;-80
2022/06/13 01:01:44;;;;;;;;;11.67;11.67;26.30;46.00;;;;;;5096983;28;11494;-79
2022/06/13 01:04:10;;;;;;;;;15.67;15.67;26.30;46.00;;;;;;5096956;28;11429;-78
2022/06/13 01:06:41;;;;;;;;;16.00;16.00;26.40;45.60;;;;;;5097231;28;11467;-80
2022/06/13 01:09:10;;;;;;;;;14.33;14.33;26.30;45.60;;;;;;5097258;28;8771;-78
2022/06/13 01:11:42;;;;;;;;;15.00;15.00;26.30;45.90;;;;;;5096966;28;11473;-78
2022/06/13 01:14:24;;;;;;;;;11.33;11.33;26.30;45.80;;;;;;5096330;28;11469;-78
2022/06/13 01:17:05;;;;;;;;;16.00;16.00;26.20;45.70;;;;;;5082179;28;11467;-80
2022/06/13 01:19:52;;;;;;;;;11.67;11.67;26.20;45.80;;;;;;5096459;28;12176;-80
2022/06/13 01:22:37;;;;;;;;;16.67;16.67;26.10;45.90;;;;;;5084595;28;11488;-78
2022/06/13 01:25:08;;;;;;;;;15.33;15.33;26.10;46.10;;;;;;5076371;28;11434;-79
2022/06/13 01:27:50;;;;;;;;;15.33;15.33;26.00;46.00;;;;;;5076590;28;11557;-78
2022/06/13 01:30:49;;;;;;;;;12.33;12.33;26.00;46.30;;;;;;5076150;28;11451;-78
2022/06/13 01:33:33;;;;;;;;;14.33;14.33;25.90;46.60;;;;;;5043208;28;11498;-78
2022/06/13 01:36:11;;;;;;;;;11.00;11.00;25.70;46.20;;;;;;5076075;28;11476;-78
2022/06/13 01:39:15;;;;;;;;;14.67;14.67;25.80;46.40;;;;;;5075881;28;11402;-78
2022/06/13 01:42:01;;;;;;;;;15.00;15.00;25.90;46.10;;;;;;5081017;28;12077;-79
2022/06/13 01:44:29;;;;;;;;;13.33;13.33;25.80;46.50;;;;;;5059872;28;8794;-78
2022/06/13 01:47:27;;;;;;;;;14.67;14.67;25.80;46.90;;;;;;5076208;28;8782;-79
2022/06/13 01:50:11;;;;;;;;;15.00;15.00;25.80;47.10;;;;;;5075400;28;8781;-79
2022/06/13 01:53:01;;;;;;;;;17.33;17.33;25.50;46.80;;;;;;5058152;28;8821;-80
2022/06/13 01:55:44;;;;;;;;;16.00;16.00;25.50;47.50;;;;;;5075826;28;8792;-79
2022/06/13 01:58:35;;;;;;;;;15.33;15.33;25.40;47.00;;;;;;5076162;28;9440;-78
2022/06/13 02:01:34;;;;;;;;;12.33;12.33;25.40;47.20;;;;;;5075933;28;8793;-81
2022/06/13 02:04:18;;;;;;;;;15.67;15.67;25.40;47.00;;;;;;5075504;28;8889;-81
2022/06/13 02:07:02;;;;;;;;;15.67;15.67;25.30;47.20;;;;;;5075626;28;8762;-80
2022/06/13 02:09:31;;;;;;;;;17.33;17.33;25.20;47.20;;;;;;5075539;28;8834;-79
2022/06/13 02:11:58;;;;;;;;;16.00;16.00;25.20;47.40;;;;;;5075439;28;8797;-81
2022/06/13 02:14:35;;;;;;;;;15.67;15.67;25.10;47.30;;;;;;5075436;28;8754;-79
2022/06/13 02:17:07;;;;;;;;;13.00;13.00;25.00;47.90;;;;;;5075201;28;8898;-78
2022/06/13 02:19:51;;;;;;;;;11.00;11.00;25.10;47.80;;;;;;5075508;28;9469;-78
2022/06/13 02:22:44;;;;;;;;;14.33;14.33;25.10;47.70;;;;;;5075280;28;11527;-78
2022/06/13 02:25:34;;;;;;;;;14.00;14.00;25.10;47.80;;;;;;5061746;28;8816;-78
2022/06/13 02:28:20;;;;;;;;;16.33;16.33;25.30;47.40;;;;;;5075333;28;11485;-78
2022/06/13 02:31:09;;;;;;;;;14.67;14.67;25.30;47.20;;;;;;5075365;28;9419;-78
2022/06/13 02:33:43;;;;;;;;;13.67;13.67;25.30;47.30;;;;;;5074981;28;8774;-79
2022/06/13 02:36:22;;;;;;;;;15.67;15.67;25.20;47.20;;;;;;5075180;28;11516;-79
2022/06/13 02:38:50;;;;;;;;;14.33;14.33;24.90;47.70;;;;;;5075021;28;8742;-79
2022/06/13 02:41:22;;;;;;;;;16.67;16.67;24.90;47.90;;;;;;5074875;28;8818;-79
2022/06/13 02:44:21;;;;;;;;;14.67;14.67;24.80;48.10;;;;;;5075126;28;9535;-78
2022/06/13 02:47:20;;;;;;;;;13.67;13.67;24.60;48.50;;;;;;4973762;28;8801;-78
2022/06/13 02:50:08;;;;;;;;;14.00;14.00;24.60;49.10;;;;;;4956544;28;8789;-79
2022/06/13 02:53:05;;;;;;;;;13.33;13.33;24.80;48.90;;;;;;4957636;28;8797;-79
2022/06/13 02:55:41;;;;;;;;;15.33;15.33;24.70;48.70;;;;;;4973845;28;8848;-78
2022/06/13 02:58:35;;;;;;;;;15.33;15.33;24.80;48.30;;;;;;4957826;28;9000;-78
2022/06/13 03:01:10;;;;;;;;;16.33;16.33;24.80;48.60;;;;;;4973789;28;8790;-78
2022/06/13 03:04:04;;;;;;;;;15.33;15.33;24.70;48.70;;;;;;4973716;28;8829;-78
2022/06/13 03:06:38;;;;;;;;;13.00;13.00;24.80;48.90;;;;;;4973783;28;8788;-78
2022/06/13 03:09:21;;;;;;;;;10.00;10.00;24.60;48.80;;;;;;4973835;28;8895;-79
2022/06/13 03:11:52;;;;;;;;;14.00;14.00;24.40;49.50;;;;;;4973756;28;8769;-78
2022/06/13 03:14:36;;;;;;;;;16.00;16.00;24.40;49.40;;;;;;4973582;28;8789;-78
2022/06/13 03:17:20;;;;;;;;;14.33;14.33;24.50;49.50;;;;;;4973361;28;8850;-78
2022/06/13 03:19:51;;;;;;;;;16.33;16.33;24.70;49.00;;;;;;4973675;28;8758;-78
2022/06/13 03:22:17;;;;;;;;;14.67;14.67;24.70;49.10;;;;;;4985905;28;8928;-79
2022/06/13 03:25:00;;;;;;;;;14.67;14.67;24.50;48.90;;;;;;5074291;28;8766;-80
2022/06/13 03:27:31;;;;;;;;;15.00;15.00;24.50;48.90;;;;;;5074822;28;9444;-79
2022/06/13 03:30:04;;;;;;;;;13.67;13.67;24.40;49.40;;;;;;5074856;28;8777;-79
2022/06/13 03:32:35;;;;;;;;;15.33;15.33;24.60;48.90;;;;;;5056847;28;8806;-80
2022/06/13 03:35:08;;;;;;;;;15.33;15.33;24.60;48.80;;;;;;5074501;28;8766;-79
2022/06/13 03:37:42;;;;;;;;;15.00;15.00;24.70;48.60;;;;;;5074449;28;8785;-78
2022/06/13 03:40:28;;;;;;;;;18.33;18.33;24.80;48.50;;;;;;5082943;28;8772;-79
2022/06/13 03:43:07;;;;;;;;;15.33;15.33;24.60;48.50;;;;;;5076816;28;8930;-79
2022/06/13 03:45:44;;;;;;;;;12.33;12.33;24.40;49.20;;;;;;5074223;28;8756;-79
2022/06/13 03:48:43;;;;;;;;;13.67;13.67;24.40;48.90;;;;;;5074375;28;9536;-79
2022/06/13 03:51:20;;;;;;;;;15.33;15.33;24.50;48.80;;;;;;5074214;28;8880;-79
2022/06/13 03:53:48;;;;;;;;;15.67;15.67;24.50;48.70;;;;;;5074330;28;8770;-79
2022/06/13 03:56:30;;;;;;;;;11.33;11.33;24.60;48.50;;;;;;5075743;28;9488;-78
2022/06/13 03:59:05;;;;;;;;;15.33;15.33;24.60;48.10;;;;;;5083900;28;8792;-79
2022/06/13 04:01:39;;;;;;;;;14.00;14.00;24.70;48.00;;;;;;5091709;28;8787;-79
2022/06/13 04:04:10;;;;;;;;;13.33;13.33;24.80;48.00;;;;;;5098447;28;8771;-78
2022/06/13 04:06:41;;;;;;;;;15.00;15.00;24.80;48.00;;;;;;5098614;28;8767;-78
2022/06/13 04:09:20;;;;;;;;;15.33;15.33;24.90;47.50;;;;;;5098442;28;8740;-79
2022/06/13 04:12:28;;;;;;;;;14.33;14.33;24.70;47.60;;;;;;5098243;28;8841;-79
2022/06/13 04:15:24;;;;;;;;;16.00;16.00;24.90;47.60;;;;;;5098269;28;8803;-79
2022/06/13 04:18:19;;;;;;;;;13.33;13.33;24.90;47.70;;;;;;5097943;28;8783;-78
2022/06/13 04:21:16;;;;;;;;;14.67;14.67;24.90;47.40;;;;;;5097846;28;8807;-78
2022/06/13 04:24:22;;;;;;;;;14.33;14.33;25.10;47.30;;;;;;5098231;28;8890;-78
2022/06/13 04:26:57;;;;;;;;;14.00;14.00;24.80;47.30;;;;;;5079795;28;9449;-79
2022/06/13 04:29:43;;;;;;;;;12.00;12.00;24.80;48.20;;;;;;5098045;28;8744;-78
2022/06/13 04:32:17;;;;;;;;;16.33;16.33;24.60;48.00;;;;;;5097762;28;11447;-78
2022/06/13 04:34:50;;;;;;;;;16.33;16.33;24.50;48.00;;;;;;5097897;28;8781;-77
2022/06/13 04:37:18;;;;;;;;;15.33;15.33;24.50;48.60;;;;;;5095847;28;8871;-78
2022/06/13 04:39:49;;;;;;;;;14.00;14.00;24.60;48.30;;;;;;5094300;28;8816;-78
2022/06/13 04:42:17;;;;;;;;;14.00;14.00;24.60;48.50;;;;;;5084796;28;8799;-78
2022/06/13 04:44:44;;;;;;;;;13.67;13.67;24.70;48.40;;;;;;5088882;28;8782;-79
2022/06/13 04:47:14;;;;;;;;;16.33;16.33;24.70;47.90;;;;;;5089046;28;11465;-81
2022/06/13 04:49:47;;;;;;;;;13.67;13.67;24.80;48.50;;;;;;5097041;28;8761;-76
2022/06/13 04:52:17;;;;;;;;;15.00;15.00;25.00;47.70;;;;;;5090282;28;11452;-75
2022/06/13 04:55:01;;;;;;;;;14.00;14.00;25.00;47.70;;;;;;5092217;28;8797;-76
2022/06/13 04:57:29;;;;;;;;;15.67;15.67;25.00;48.30;;;;;;5097458;28;8797;-75
2022/06/13 04:59:56;;;;;;;;;16.33;16.33;24.80;48.60;;;;;;5097185;28;8758;-75
2022/06/13 05:02:31;;;;;;;;;14.67;14.67;24.90;48.20;;;;;;5090748;28;8827;-75
2022/06/13 05:04:57;;;;;;;;;15.33;15.33;24.90;48.20;;;;;;5079181;28;8774;-76
2022/06/13 05:07:23;;;;;;;;;16.33;16.33;25.00;48.00;;;;;;5077012;28;8872;-74
2022/06/13 05:10:00;;;;;;;;;15.00;15.00;25.30;47.70;;;;;;5076678;28;8774;-73
2022/06/13 05:12:44;;;;;;;;;15.33;15.33;25.30;47.60;;;;;;5076343;28;8785;-73
2022/06/13 05:15:19;;;;;;;;;15.67;15.67;25.00;47.70;;;;;;5076677;28;9399;-73
2022/06/13 05:18:08;;;;;;;;;16.33;16.33;24.90;48.30;;;;;;5076326;28;9497;-73
2022/06/13 05:20:59;;;;;;;;;17.67;17.67;25.20;48.10;;;;;;5076477;28;9439;-73
2022/06/13 05:23:37;;;;;;;;;14.67;14.67;24.70;48.30;;;;;;5076029;28;8797;-73
2022/06/13 05:26:04;;;;;;;;;16.33;16.33;24.80;49.50;;;;;;5075955;28;8831;-72
2022/06/13 05:28:33;;;;;;;;;15.33;15.33;24.90;49.30;;;;;;5076310;28;8784;-73
2022/06/13 05:31:01;;;;;;;;;15.33;15.33;24.90;49.30;;;;;;5076285;28;8769;-73
2022/06/13 05:33:33;;;;;;;;;19.67;19.33;24.90;48.90;;;;;;5076212;28;8766;-73
2022/06/13 05:36:02;;;;;;;;;18.00;18.00;24.70;49.60;;;;;;5089065;28;8818;-75
2022/06/13 05:39:01;;;;;;;;;18.00;18.00;24.70;50.10;;;;;;5095337;28;8760;-76
2022/06/13 05:41:28;;;;;;;;;16.33;16.33;24.80;49.90;;;;;;5082980;28;8771;-77
2022/06/13 05:43:54;;;;;;;;;18.00;18.00;25.00;49.80;;;;;;5095033;28;8880;-76
2022/06/13 05:46:37;;;;;;;;;20.67;20.67;24.90;50.10;;;;;;5096239;28;8871;-74
2022/06/13 05:49:05;;;;;;;;;19.00;19.00;25.10;49.80;;;;;;5096218;28;9438;-75
2022/06/13 05:51:31;;;;;;;;;17.00;17.00;25.50;49.90;;;;;;5096212;28;8771;-76
2022/06/13 05:53:57;;;;;;;;;14.33;14.33;25.70;48.80;;;;;;5078177;28;8775;-75
2022/06/13 05:56:24;;;;;;;;;14.33;14.33;25.30;48.60;;;;;;5095937;28;8799;-75
2022/06/13 05:58:50;;;;;;;;;16.33;16.33;24.90;49.50;;;;;;5095988;28;8797;-76
2022/06/13 06:01:16;;;;;;;;;17.33;17.33;25.10;49.80;;;;;;5095987;28;8859;-76
2022/06/13 06:03:44;;;;;;;;;17.67;17.67;24.90;50.30;;;;;;5095840;28;8813;-76
2022/06/13 06:06:14;;;;;;;;;15.67;15.67;25.30;50.00;;;;;;5095856;28;8782;-75
2022/06/13 06:08:41;;;;;;;;;19.00;19.00;25.50;49.60;;;;;;5095984;28;8886;-76
2022/06/13 06:11:06;;;;;;;;;20.33;20.33;25.50;49.70;;;;;;5096017;28;8760;-75
2022/06/13 06:13:32;;;;;;;;;21.00;21.00;25.50;49.70;;;;;;5095917;28;8940;-75
2022/06/13 06:16:00;;;;;;;;;16.33;16.33;25.30;50.00;;;;;;5095732;28;8749;-77
2022/06/13 06:18:29;;;;;;;;;20.67;20.67;25.30;50.60;;;;;;5095413;28;8803;-76
2022/06/13 06:20:55;;;;;;;;;22.67;22.67;25.20;50.90;;;;;;5095554;28;8756;-76
2022/06/13 06:23:21;;;;;;;;;16.67;16.67;25.30;51.00;;;;;;5095468;28;8811;-75
2022/06/13 06:25:47;;;;;;;;;19.67;19.67;25.50;49.90;;;;;;5094299;28;8815;-74
2022/06/13 06:28:19;;;;;;;;;19.00;19.00;25.50;49.90;;;;;;5095782;28;8744;-75
2022/06/13 06:30:45;;;;;;;;;17.33;17.33;25.60;49.70;;;;;;5095259;28;11406;-75
2022/06/13 06:33:12;;;;;;;;;18.67;18.67;25.90;49.60;;;;;;5095229;28;8748;-75
2022/06/13 06:35:39;;;;;;;;;20.00;20.00;26.10;49.20;;;;;;5095359;28;8767;-75
2022/06/13 06:38:06;;;;;;;;;18.67;18.67;26.00;48.80;;;;;;5095213;28;8751;-76
2022/06/13 06:40:32;;;;;;;;;16.00;16.00;26.10;48.60;;;;;;5095159;28;8764;-75
2022/06/13 06:42:58;;;;;;;;;17.67;17.67;26.30;48.60;;;;;;5094907;28;11486;-76
2022/06/13 06:45:25;;;;;;;;;15.67;15.67;26.30;48.10;;;;;;5095132;28;8854;-76
2022/06/13 06:47:52;;;;;;;;;17.67;17.67;26.40;47.80;;;;;;5095257;28;8859;-75
2022/06/13 06:50:21;;;;;;;;;20.00;20.00;26.40;48.10;;;;;;5094983;28;8771;-75
2022/06/13 06:52:48;;;;;;;;;20.33;20.33;26.40;48.00;;;;;;5095275;28;8756;-75
2022/06/13 07:00:46;;;;;;;;;15.00;15.00;26.50;47.70;;;;;;5094949;28;8774;-72
2022/06/13 07:03:12;;;;;;;;;16.00;16.00;26.10;48.30;;;;;;5076823;28;8796;-72
2022/06/13 07:05:38;;;;;;;;;17.33;17.33;26.20;48.50;;;;;;5094828;28;8899;-72
2022/06/13 07:08:04;;;;;;;;;16.00;16.00;25.80;48.70;;;;;;5095052;28;8748;-72
2022/06/13 07:10:30;;;;;;;;;16.67;16.67;26.10;48.70;;;;;;5094694;28;8772;-72
2022/06/13 07:12:56;;;;;;;;;16.00;16.00;26.40;48.30;;;;;;5094897;28;9441;-72
2022/06/13 07:15:22;;;;;;;;;13.67;13.67;26.50;48.20;;;;;;5094881;28;8783;-72
2022/06/13 07:17:48;;;;;;;;;15.67;15.67;26.60;47.40;;;;;;5094332;28;11440;-72
2022/06/13 07:20:14;;;;;;;;;15.00;15.00;26.70;46.50;;;;;;5094554;28;8861;-72
2022/06/13 07:22:53;;;;;;;;;16.00;16.00;26.90;46.70;;;;;;5094899;28;8898;-72
2022/06/13 07:25:22;;;;;;;;;16.67;16.67;26.80;45.80;;;;;;5094563;28;8770;-72
2022/06/13 07:27:48;;;;;;;;;15.00;15.00;26.60;46.30;;;;;;5094961;28;11456;-72
2022/06/13 07:30:16;;;;;;;;;16.67;16.67;26.40;46.90;;;;;;5094389;28;11436;-72
2022/06/13 07:32:43;;;;;;;;;16.33;16.33;26.50;47.10;;;;;;5094688;28;8807;-72
2022/06/13 07:35:12;;;;;;;;;16.67;16.67;26.40;47.40;;;;;;5094751;28;9385;-72
2022/06/13 07:40:24;;;;;;;;;18.00;18.00;26.70;46.60;;;;;;5094466;28;8728;-72
2022/06/13 07:43:01;;;;;;;;;27.00;27.00;27.00;46.10;;;;;;5094176;28;11570;-72
2022/06/13 07:45:33;;;;;;;;;22.00;22.00;26.90;45.50;;;;;;5094387;28;8806;-72
2022/06/13 07:47:59;;;;;;;;;19.00;19.00;27.00;46.00;;;;;;5094366;28;8837;-72
2022/06/13 07:50:27;;;;;;;;;15.33;15.33;27.20;45.80;;;;;;5094147;28;11453;-72
2022/06/13 07:52:54;;;;;;;;;15.00;15.00;27.40;45.60;;;;;;5094484;28;11440;-72
2022/06/13 07:55:22;;;;;;;;;13.67;13.67;27.50;45.00;;;;;;5094223;28;11452;-72
2022/06/13 07:57:48;;;;;;;;;12.33;12.33;27.60;44.70;;;;;;5094496;28;11546;-72
2022/06/13 08:00:25;;;;;;;;;15.00;15.00;27.70;44.60;;;;;;5094059;28;11423;-73
2022/06/13 08:02:52;;;;;;;;;14.67;14.67;27.70;44.20;;;;;;5094198;28;11448;-72
2022/06/13 08:05:18;;;;;;;;;14.33;14.33;27.50;44.40;;;;;;5093972;28;12075;-72
2022/06/13 08:07:44;;;;;;;;;16.67;16.67;27.80;44.60;;;;;;5093881;28;11427;-72
2022/06/13 08:10:10;;;;;;;;;21.33;21.33;28.00;43.90;;;;;;5075907;28;11473;-72
2022/06/13 08:12:37;;;;;;;;;17.67;17.67;28.10;43.20;;;;;;5094013;28;8756;-72
2022/06/13 08:15:02;;;;;;;;;19.00;18.00;28.00;42.80;;;;;;5093883;28;11429;-72
2022/06/13 08:17:28;;;;;;;;;15.67;15.67;28.20;42.70;;;;;;5093681;28;11448;-72
2022/06/13 08:19:54;;;;;;;;;13.00;13.00;28.30;42.60;;;;;;5093985;28;8768;-72
2022/06/13 08:22:20;;;;;;;;;17.00;17.00;28.30;42.10;;;;;;5094029;28;8795;-72
2022/06/13 08:24:46;;;;;;;;;20.00;20.00;28.30;42.40;;;;;;5093859;28;9417;-72
2022/06/13 08:27:11;;;;;;;;;14.00;14.00;28.30;42.40;;;;;;5094181;28;8902;-72
2022/06/13 08:29:37;;;;;;;;;12.75;12.75;28.40;42.30;;;;;;5094183;28;8772;-72
2022/06/13 08:32:04;;;;;;;;;14.67;14.67;28.40;42.70;;;;;;5093883;28;8878;-72
2022/06/13 08:34:30;;;;;;;;;17.00;17.00;28.40;42.90;;;;;;5093662;28;11469;-72
2022/06/13 08:36:56;;;;;;;;;13.00;13.00;28.20;42.40;;;;;;5093731;28;11440;-72
2022/06/13 08:39:23;;;;;;;;;11.50;11.50;28.20;42.00;;;;;;5093657;28;11449;-72
2022/06/13 08:41:55;;;;;;;;;15.00;15.00;28.20;42.30;;;;;;5093862;28;8756;-72
2022/06/13 08:44:37;;;;;;;;;13.75;13.75;28.50;41.70;;;;;;5093699;28;11482;-81
2022/06/13 08:47:29;;;;;;;;;16.67;16.67;28.80;40.90;;;;;;5093699;28;11428;-74
2022/06/13 08:50:17;;;;;;;;;26.67;25.33;28.80;40.80;;;;;;5067555;28;11482;-74
2022/06/13 08:52:57;;;;;;;;;27.67;26.33;28.70;41.20;;;;;;5096961;28;11478;-77
2022/06/13 08:55:25;;;;;;;;;25.67;25.67;28.90;40.20;;;;;;5097238;28;9437;-75
2022/06/13 08:58:01;;;;;;;;;65.75;53.25;28.80;41.00;;;;;;5097450;28;8799;-75
2022/06/13 09:00:30;;;;;;;;;30.67;30.33;28.80;40.50;;;;;;5097184;28;8928;-75
2022/06/13 09:03:03;;;;;;;;;30.00;30.00;28.90;40.10;;;;;;5096978;28;8807;-75
2022/06/13 09:05:48;;;;;;;;;26.00;26.00;28.90;40.80;;;;;;5097055;28;8794;-74
2022/06/13 09:08:51;;;;;;;;;19.00;19.00;29.20;40.10;;;;;;5079285;28;8835;-74
2022/06/13 09:11:45;;;;;;;;;11.00;11.00;29.40;39.10;;;;;;5045162;28;11480;-74
2022/06/13 09:14:33;;;;;;;;;18.50;18.50;29.50;39.40;;;;;;5096588;28;11532;-74
2022/06/13 09:17:23;;;;;;;;;16.50;16.50;29.60;38.10;;;;;;5096536;28;11851;-74
2022/06/13 09:20:08;;;;;;;;;17.00;17.00;29.50;38.90;;;;;;5096925;28;11438;-74
2022/06/13 09:22:52;;;;;;;;;17.00;17.00;29.70;39.60;;;;;;5096774;28;11461;-75
2022/06/13 09:25:49;;;;;;;;;19.33;19.33;29.90;39.80;;;;;;5096556;28;11535;-75
2022/06/13 09:28:28;;;;;;;;;17.25;17.25;30.10;39.20;;;;;;5096486;28;11449;-75
2022/06/13 09:31:07;;;;;;;;;16.50;16.50;30.10;39.40;;;;;;5096447;28;11442;-75
2022/06/13 09:33:37;;;;;;;;;13.00;13.00;30.10;37.70;;;;;;5096731;28;12142;-75
2022/06/13 09:36:29;;;;;;;;;15.00;15.00;30.20;37.00;;;;;;5096455;28;11463;-75
2022/06/13 09:39:10;;;;;;;;;16.00;16.00;30.50;37.30;;;;;;5096291;28;11494;-74
2022/06/13 09:42:04;;;;;;;;;16.00;16.00;30.50;37.10;;;;;;5096632;28;11417;-75
2022/06/13 09:44:50;;;;;;;;;15.00;15.00;30.60;37.40;;;;;;5096220;28;11561;-75
2022/06/13 09:47:16;;;;;;;;;14.00;14.00;30.80;37.80;;;;;;5096096;28;11433;-75
2022/06/13 09:50:09;;;;;;;;;14.75;14.75;30.80;35.90;;;;;;5095953;28;11544;-75
2022/06/13 09:52:47;;;;;;;;;14.75;14.75;31.00;36.40;;;;;;5096173;28;8786;-76
2022/06/13 09:55:30;;;;;;;;;14.25;14.25;30.90;36.30;;;;;;5096072;28;11424;-76
2022/06/13 09:58:13;;;;;;;;;13.50;13.50;31.10;36.30;;;;;;5096199;28;11533;-75
2022/06/13 10:00:43;;;;;;;;;13.00;13.00;31.00;36.70;;;;;;5095243;28;11428;-76
2022/06/13 10:03:18;;;;;;;;;14.00;14.00;31.40;36.80;;;;;;5095647;28;11523;-76
2022/06/13 10:05:58;;;;;;;;;13.67;13.67;31.50;34.40;;;;;;5095540;28;11455;-75
2022/06/13 10:09:09;;;;;;;;;12.75;12.75;31.70;34.80;;;;;;5095711;28;11410;-75
2022/06/13 10:11:59;;;;;;;;;13.50;13.50;31.50;33.60;;;;;;5033388;28;11520;-76
2022/06/13 10:14:30;;;;;;;;;13.00;13.00;31.80;33.30;;;;;;5033403;28;11386;-76
2022/06/13 10:17:10;;;;;;;;;14.25;14.25;32.00;33.80;;;;;;5032906;28;11521;-76
2022/06/13 10:19:53;;;;;;;;;15.00;15.00;31.90;33.60;;;;;;5033168;28;11415;-76
2022/06/13 10:23:02;;;;;;;;;15.25;15.25;31.80;34.00;;;;;;5033009;28;11443;-75
2022/06/13 10:25:46;;;;;;;;;13.50;13.50;32.10;32.90;;;;;;5033379;28;11382;-77
2022/06/13 10:28:23;;;;;;;;;14.00;14.00;32.50;32.60;;;;;;5033529;28;11477;-77
2022/06/13 10:31:10;;;;;;;;;14.00;14.00;32.70;32.50;;;;;;5033144;28;11431;-77
2022/06/13 10:33:39;;;;;;;;;12.00;12.00;32.90;32.90;;;;;;5032783;28;11395;-76
2022/06/13 10:36:17;;;;;;;;;11.50;11.50;32.60;31.20;;;;;;5032914;28;11410;-76
2022/06/13 10:38:56;;;;;;;;;11.75;11.75;32.60;31.30;;;;;;5031276;28;11488;-76
2022/06/13 10:41:25;;;;;;;;;12.25;12.25;32.50;31.20;;;;;;5022601;28;11400;-77
2022/06/13 10:43:53;;;;;;;;;9.75;9.75;32.10;31.00;;;;;;5094972;28;11545;-76
2022/06/13 10:46:18;;;;;;;;;8.50;8.50;32.20;30.50;;;;;;5077173;28;11410;-76
2022/06/13 10:48:54;;;;;;;;;15.25;15.25;32.50;31.00;;;;;;5095145;28;11393;-77
2022/06/13 10:51:20;;;;;;;;;13.75;13.75;33.10;30.50;;;;;;5095042;28;8783;-77
2022/06/13 10:54:19;;;;;;;;;9.00;9.00;33.40;30.00;;;;;;5094794;28;11428;-76
2022/06/13 10:56:56;;;;;;;;;11.25;11.25;33.40;29.50;;;;;;5094958;28;8780;-76
2022/06/13 10:59:28;;;;;;;;;11.25;11.25;33.70;28.30;;;;;;5094703;28;11461;-76
2022/06/13 11:02:00;;;;;;;;;13.00;13.00;33.80;29.40;;;;;;5076747;28;11477;-76
2022/06/13 11:04:36;;;;;;;;;14.00;14.00;34.00;28.80;;;;;;5094533;28;11454;-75
2022/06/13 11:07:15;;;;;;;;;13.00;13.00;34.20;28.80;;;;;;5094830;28;11425;-75
2022/06/13 11:09:57;;;;;;;;;12.00;12.00;34.30;28.50;;;;;;5076948;28;11402;-75
2022/06/13 11:12:31;;;;;;;;;9.75;9.75;34.40;28.80;;;;;;5093742;28;11447;-75
2022/06/13 11:24:45;;;;;;;;;12.75;12.75;34.90;29.10;;;;;;5094485;28;11445;-77
2022/06/13 11:27:40;;;;;;;;;13.25;13.25;35.10;28.10;;;;;;5095406;28;11603;-76
2022/06/13 11:30:28;;;;;;;;;14.75;14.75;34.50;28.10;;;;;;5096526;28;11524;-78
2022/06/13 11:33:06;;;;;;;;;14.75;14.75;34.40;28.10;;;;;;5107857;28;11507;-78
2022/06/13 11:35:47;;;;;;;;;14.75;14.75;34.30;28.30;;;;;;5094077;28;11605;-76
2022/06/13 11:38:17;;;;;;;;;13.00;13.00;34.40;28.60;;;;;;5094201;28;11438;-75
2022/06/13 11:40:47;;;;;;;;;8.00;8.00;34.90;28.40;;;;;;5094531;28;11439;-79
2022/06/13 11:43:30;;;;;;;;;12.75;12.75;35.20;27.10;;;;;;5084929;28;11469;-74
2022/06/13 11:45:59;;;;;;;;;11.75;11.75;35.80;27.30;;;;;;5085178;28;11453;-80
2022/06/13 11:48:26;;;;;;;;;14.00;14.00;36.50;27.70;;;;;;5081686;28;11439;-77
2022/06/13 11:51:01;;;;;;;;;15.00;15.00;36.50;26.20;;;;;;5071516;28;12054;-73
2022/06/13 11:53:35;;;;;;;;;12.75;12.75;36.90;25.80;;;;;;5089672;28;11441;-77
2022/06/13 11:56:11;;;;;;;;;12.00;12.00;36.90;25.90;;;;;;5089686;28;11424;-77
2022/06/13 11:58:45;;;;;;;;;12.00;12.00;37.40;25.70;;;;;;5076283;28;11438;-81
2022/06/13 12:01:30;;;;;;;;;11.00;11.00;37.60;25.20;;;;;;5091921;28;11440;-81
2022/06/13 12:04:14;;;;;;;;;12.75;12.75;37.10;25.50;;;;;;5091662;28;11450;-78
2022/06/13 12:06:46;;;;;;;;;13.00;13.00;37.70;25.80;;;;;;5087701;28;11410;-79
2022/06/13 12:09:34;;;;;;;;;13.00;13.00;38.00;25.60;;;;;;5088384;28;11444;-76
2022/06/13 12:12:08;;;;;;;;;13.00;13.00;37.80;25.30;;;;;;5090545;28;11479;-72
2022/06/13 12:14:38;;;;;;;;;12.75;12.75;38.10;25.90;;;;;;5092618;28;11430;-73
2022/06/13 12:17:26;;;;;;;;;12.75;12.75;37.70;25.40;;;;;;5089644;28;11432;-74
2022/06/13 12:20:07;;;;;;;;;12.25;12.25;37.80;25.60;;;;;;5083077;28;11462;-79
2022/06/13 12:22:50;;;;;;;;;13.25;13.25;37.90;25.60;;;;;;5092299;28;11453;-75
2022/06/13 12:25:33;;;;;;;;;14.75;14.75;37.50;25.50;;;;;;5097708;28;11451;-79
2022/06/13 12:28:11;;;;;;;;;11.25;11.25;37.90;26.30;;;;;;5082246;28;11574;-77
2022/06/13 12:30:51;;;;;;;;;16.00;16.00;37.80;25.60;;;;;;5095092;28;11441;-76
2022/06/13 12:33:45;;;;;;;;;11.75;11.75;37.10;26.30;;;;;;5097477;28;11459;-76
2022/06/13 12:36:48;;;;;;;;;13.00;13.00;36.80;26.10;;;;;;5097317;28;11607;-78
2022/06/13 12:39:35;;;;;;;;;14.00;14.00;37.60;26.80;;;;;;5097497;28;11543;-74
2022/06/13 12:42:20;;;;;;;;;11.50;11.50;37.70;25.30;;;;;;5086895;28;11501;-76
2022/06/13 12:45:12;;;;;;;;;14.75;14.75;37.80;25.20;;;;;;5097176;28;11443;-77
2022/06/13 12:48:12;;;;;;;;;12.25;12.25;37.90;24.90;;;;;;5076834;28;11450;-78
2022/06/13 12:50:58;;;;;;;;;13.00;13.00;37.30;25.00;;;;;;5095578;28;11462;-74
2022/06/13 12:53:54;;;;;;;;;11.00;11.00;37.70;25.50;;;;;;5097084;28;11413;-74
2022/06/13 12:56:44;;;;;;;;;11.50;11.50;38.30;25.60;;;;;;5096872;28;11472;-73
2022/06/13 12:59:49;;;;;;;;;14.50;14.50;38.00;24.70;;;;;;5094387;28;11450;-73
2022/06/13 13:02:31;;;;;;;;;14.25;14.25;37.90;25.80;;;;;;5043038;28;11473;-73
2022/06/13 13:05:01;;;;;;;;;14.75;14.75;37.30;26.30;;;;;;5084912;28;11454;-74
2022/06/13 13:07:34;;;;;;;;;15.00;15.00;37.60;26.00;;;;;;5078889;28;11462;-74
2022/06/13 13:10:14;;;;;;;;;14.75;14.75;37.60;25.70;;;;;;5076390;28;11466;-74
2022/06/13 13:13:08;;;;;;;;;15.75;15.75;37.80;25.70;;;;;;5076563;28;11567;-73
2022/06/13 13:16:01;;;;;;;;;14.50;14.50;37.10;25.50;;;;;;5086599;28;11565;-74
2022/06/13 13:18:38;;;;;;;;;15.25;15.25;37.00;26.90;;;;;;5096333;28;11487;-75
2022/06/13 13:21:31;;;;;;;;;15.50;15.50;37.50;25.80;;;;;;5093549;28;11503;-72
2022/06/13 13:24:22;;;;;;;;;14.25;14.25;36.90;25.00;;;;;;5073565;28;12189;-72
2022/06/13 13:27:07;;;;;;;;;13.75;13.75;37.00;25.40;;;;;;5086919;28;11551;-72
2022/06/13 13:30:10;;;;;;;;;11.50;11.50;37.20;25.00;;;;;;5076265;28;12091;-73
2022/06/13 13:32:54;;;;;;;;;19.00;19.00;37.60;24.70;;;;;;5075950;28;11522;-72
2022/06/13 13:35:32;;;;;;;;;16.75;16.75;37.70;24.80;;;;;;5079811;28;11468;-78
2022/06/13 13:38:21;;;;;;;;;12.00;12.00;38.00;24.70;;;;;;5088816;28;11559;-74